Time;durP1;ratioP1;P1;durP2;ratioP2;P2;SDS_P1;SDS_P2;PMS_P1;PMS_P2;Temp;Humidity;BMP_temperature;BMP_pressure;BME280_temperature;BME280_humidity;BME280_pressure;Samples;Min_cycle;Max_cycle;Signal;HPM_P1;HPM_P2
2023/04/18 04:40:05;;;;;;;;;;;;;;;8.17;95.85;100356.89;108819;1280;22516;-55
2023/04/18 04:42:42;;;;;;;;;;;;;;;8.20;96.08;100355.70;108677;1285;22545;-45
2023/04/18 04:45:16;;;;;;;;;;;;;;;8.22;95.80;100355.71;109105;1278;22534;-53
2023/04/18 04:47:45;;;;;;;;;;;;;;;8.25;95.57;100354.20;108684;1279;24338;-56
2023/04/18 04:50:14;;;;;;;;;;;;;;;8.30;95.60;100353.89;108389;1278;22499;-45
2023/04/18 04:52:42;;;;;;;;;;;;;;;8.35;95.78;100351.18;109536;1278;23299;-46
2023/04/18 04:55:10;;;;;;;;;;;;;;;8.41;95.89;100350.05;109470;1284;22524;-46
2023/04/18 04:57:40;;;;;;;;;;;;;;;8.45;96.01;100351.11;109506;1279;22416;-46
2023/04/18 05:00:20;;;;;;;;;;;;;;;8.49;96.00;100351.69;109448;1280;23172;-46
2023/04/18 05:02:48;;;;;;;;;;;;;;;8.55;95.65;100355.73;109372;1279;22444;-47
2023/04/18 05:05:17;;;;;;;;;;;;;;;8.62;95.11;100357.19;109375;1281;23246;-55
2023/04/18 05:07:45;;;;;;;;;;;;;;;8.69;94.68;100362.46;109464;1278;22506;-56
2023/04/18 05:10:14;;;;;;;;;;;;;;;8.77;94.48;100357.83;109494;1278;22966;-45
2023/04/18 05:12:42;;;;;;;;;;;;;;;8.85;94.02;100362.09;109656;1278;22464;-56
2023/04/18 05:15:11;;;;;;;;;;;;;;;8.97;93.75;100358.17;109241;1281;22679;-56
2023/04/18 05:17:39;;;;;;;;;;;;;;;9.07;93.16;100361.02;109408;1278;22431;-46
2023/04/18 05:20:08;;;;;;;;;;;;;;;9.18;93.22;100354.65;109533;1285;23345;-46
2023/04/18 05:22:36;;;;;;;;;;;;;;;9.31;93.10;100347.61;109595;1281;22487;-45
2023/04/18 05:25:05;;;;;;;;;;;;;;;9.46;92.41;100343.86;109024;1278;22623;-59
2023/04/18 05:27:33;;;;;;;;;;;;;;;9.56;91.10;100340.25;109105;1280;24224;-56
2023/04/18 05:30:02;;;;;;;;;;;;;;;9.65;90.28;100333.86;108610;1278;22601;-50
2023/04/18 05:32:32;;;;;;;;;;;;;;;9.73;88.75;100328.50;108499;1278;22521;-56
2023/04/18 05:35:08;;;;;;;;;;;;;;;9.78;87.43;100331.64;108618;1283;22599;-47
2023/04/18 05:37:42;;;;;;;;;;;;;;;9.82;87.04;100334.10;108504;1278;23039;-56
2023/04/18 05:40:10;;;;;;;;;;;;;;;9.86;86.07;100335.86;109158;1278;22581;-45
2023/04/18 05:43:00;;;;;;;;;;;;;;;9.91;85.88;100331.33;108332;1281;26699;-57
2023/04/18 05:45:29;;;;;;;;;;;;;;;9.96;85.39;100330.84;108737;1267;23033;-54
2023/04/18 05:48:31;;;;;;;;;;;;;;;10.03;84.93;100327.55;109365;1277;23058;-46
2023/04/18 05:51:31;;;;;;;;;;;;;;;10.08;83.89;100330.86;108915;1277;22578;-56
2023/04/18 05:54:35;;;;;;;;;;;;;;;10.11;83.16;100326.70;107801;1277;24179;-46
2023/04/18 05:57:16;;;;;;;;;;;;;;;10.12;82.97;100326.70;108961;1278;23036;-45
2023/04/18 06:00:13;;;;;;;;;;;;;;;10.10;82.00;100326.88;109140;1278;22521;-50
2023/04/18 06:02:45;;;;;;;;;;;;;;;10.06;81.59;100325.29;108546;1281;22549;-59
2023/04/18 06:05:39;;;;;;;;;;;;;;;10.02;81.74;100322.66;108295;1283;22582;-46
2023/04/18 06:08:09;;;;;;;;;;;;;;;10.01;81.25;100318.13;109280;1280;22443;-55
2023/04/18 06:10:37;;;;;;;;;;;;;;;10.09;81.23;100321.98;108732;1279;22551;-47
2023/04/18 06:13:06;;;;;;;;;;;;;;;10.24;81.02;100313.84;108960;1279;22476;-54
2023/04/18 06:15:34;;;;;;;;;;;;;;;10.38;80.20;100316.84;108923;1278;22833;-46
2023/04/18 06:18:05;;;;;;;;;;;;;;;10.48;79.51;100310.73;108399;1274;23404;-54
2023/04/18 06:20:40;;;;;;;;;;;;;;;10.59;79.01;100309.02;108236;1283;23025;-56
2023/04/18 06:23:37;;;;;;;;;;;;;;;10.79;78.76;100309.52;108472;1278;23013;-47
2023/04/18 06:26:06;;;;;;;;;;;;;;;10.99;78.53;100306.19;108887;1280;22523;-45
2023/04/18 06:28:35;;;;;;;;;;;;;;;11.17;78.69;100305.80;108877;1277;23108;-55
2023/04/18 06:31:03;;;;;;;;;;;;;;;11.37;78.00;100301.56;109276;1278;23000;-45
2023/04/18 06:33:34;;;;;;;;;;;;;;;11.53;76.57;100296.79;108627;1278;27147;-47
2023/04/18 06:36:03;;;;;;;;;;;;;;;11.65;75.52;100301.10;108900;1280;22431;-48
2023/04/18 06:38:35;;;;;;;;;;;;;;;11.79;74.73;100297.73;108716;1278;22545;-58
2023/04/18 06:41:14;;;;;;;;;;;;;;;11.92;74.70;100298.20;109960;1277;22397;31
2023/04/18 06:43:49;;;;;;;;;;;;;;;12.02;73.85;100300.60;109125;1279;23572;-55
2023/04/18 06:46:34;;;;;;;;;;;;;;;12.08;73.35;100300.56;109061;1280;22472;-57
2023/04/18 06:49:12;;;;;;;;;;;;;;;12.12;72.58;100302.29;109075;1286;22506;-58
2023/04/18 06:52:01;;;;;;;;;;;;;;;12.08;71.77;100305.82;109205;1280;22639;-57
2023/04/18 06:54:40;;;;;;;;;;;;;;;12.04;70.83;100303.74;109127;1280;23267;-56
2023/04/18 06:57:14;;;;;;;;;;;;;;;11.98;71.39;100298.16;109196;1279;22466;-63
2023/04/18 06:59:50;;;;;;;;;;;;;;;12.00;71.57;100300.26;109058;1280;22544;-57
2023/04/18 07:02:22;;;;;;;;;;;;;;;12.01;72.20;100296.59;108988;1280;22925;-57
2023/04/18 07:04:51;;;;;;;;;;;;;;;11.99;73.40;100293.45;109138;1280;22480;-55
2023/04/18 07:07:31;;;;;;;;;;;;;;;12.07;73.71;100288.16;108852;1281;22543;-57
2023/04/18 07:10:06;;;;;;;;;;;;;;;12.14;73.55;100284.45;109375;1276;22544;-56
2023/04/18 07:12:35;;;;;;;;;;;;;;;12.23;72.94;100288.23;108977;1280;23307;-57
2023/04/18 07:15:04;;;;;;;;;;;;;;;12.31;72.83;100282.05;109111;1280;22518;-45
2023/04/18 07:17:32;;;;;;;;;;;;;;;12.38;72.84;100282.35;109106;1280;22812;-45
2023/04/18 07:20:00;;;;;;;;;;;;;;;12.48;72.37;100278.94;109072;1280;22460;-56
2023/04/18 07:22:29;;;;;;;;;;;;;;;12.57;72.41;100279.77;109143;1280;22449;-48
2023/04/18 07:24:58;;;;;;;;;;;;;;;12.63;72.41;100278.82;109155;1280;23008;-58
2023/04/18 07:27:26;;;;;;;;;;;;;;;12.74;71.87;100271.73;109065;1280;22475;-57
2023/04/18 07:29:54;;;;;;;;;;;;;;;12.81;70.13;100266.76;109156;1280;22492;-56
2023/04/18 07:32:22;;;;;;;;;;;;;;;12.88;69.50;100261.80;109099;1283;22462;-57
2023/04/18 07:34:51;;;;;;;;;;;;;;;12.94;68.41;100262.60;109098;1280;22523;-47
2023/04/18 07:37:20;;;;;;;;;;;;;;;13.02;68.71;100260.94;109144;1280;22445;-56
2023/04/18 07:39:48;;;;;;;;;;;;;;;13.11;67.31;100252.98;109175;1284;22949;-55
2023/04/18 07:42:16;;;;;;;;;;;;;;;13.15;66.37;100253.45;109347;1284;23244;-46
2023/04/18 07:44:44;;;;;;;;;;;;;;;13.21;66.94;100254.81;109322;1279;23400;-47
2023/04/18 07:47:14;;;;;;;;;;;;;;;13.27;66.03;100257.90;109226;1283;23331;-48
2023/04/18 07:49:52;;;;;;;;;;;;;;;13.33;65.92;100256.42;109357;1280;22467;-56
2023/04/18 07:52:20;;;;;;;;;;;;;;;13.40;65.88;100261.25;109395;1280;23672;-58
2023/04/18 07:54:49;;;;;;;;;;;;;;;13.46;64.52;100259.61;109132;1280;22558;-57
2023/04/18 07:57:17;;;;;;;;;;;;;;;13.46;64.24;100261.35;109355;1279;22530;-48
2023/04/18 07:59:46;;;;;;;;;;;;;;;13.47;63.58;100258.55;109332;1281;23383;-47
2023/04/18 08:02:15;;;;;;;;;;;;;;;13.50;64.24;100262.52;109424;1280;22458;-58
2023/04/18 08:04:43;;;;;;;;;;;;;;;13.59;65.08;100257.50;109318;1280;22494;-47
2023/04/18 08:07:16;;;;;;;;;;;;;;;13.72;65.12;100255.94;109233;1280;22458;-46
2023/04/18 08:09:44;;;;;;;;;;;;;;;13.85;64.85;100252.43;109125;1280;22884;-45
2023/04/18 08:12:12;;;;;;;;;;;;;;;13.96;63.70;100254.38;109068;1280;23212;-57
2023/04/18 08:14:40;;;;;;;;;;;;;;;13.98;63.51;100249.78;109167;1280;23690;-55
2023/04/18 08:17:09;;;;;;;;;;;;;;;14.03;63.33;100248.30;109240;1280;22468;-56
2023/04/18 08:19:39;;;;;;;;;;;;;;;14.08;62.28;100244.90;109197;1279;23239;-58
2023/04/18 08:22:08;;;;;;;;;;;;;;;14.12;62.01;100242.21;109207;1280;22463;-46
2023/04/18 08:24:37;;;;;;;;;;;;;;;14.16;62.05;100242.15;109203;1281;22771;-47
2023/04/18 08:27:13;;;;;;;;;;;;;;;14.24;62.09;100238.54;109379;1279;22479;-46
2023/04/18 08:29:42;;;;;;;;;;;;;;;14.31;61.34;100237.88;109291;1280;22449;-56
2023/04/18 08:32:10;;;;;;;;;;;;;;;14.37;61.34;100240.42;109361;1280;23058;-46
2023/04/18 08:34:38;;;;;;;;;;;;;;;14.42;59.79;100232.61;109242;1280;22881;-57
2023/04/18 08:37:07;;;;;;;;;;;;;;;14.42;59.65;100229.44;109288;1283;23495;-57
2023/04/18 08:39:35;;;;;;;;;;;;;;;14.44;60.30;100232.05;109369;1280;23670;-57
2023/04/18 08:42:03;;;;;;;;;;;;;;;14.50;60.99;100234.80;109236;1280;22944;-56
2023/04/18 08:44:32;;;;;;;;;;;;;;;14.57;61.47;100234.48;108869;1279;24082;-57
2023/04/18 08:47:01;;;;;;;;;;;;;;;14.63;61.06;100232.45;109293;1281;22420;-56
2023/04/18 08:49:30;;;;;;;;;;;;;;;14.72;60.20;100236.52;109235;1280;22543;-46
2023/04/18 08:52:20;;;;;;;;;;;;;;;14.79;58.79;100231.30;109204;1280;22477;-55
2023/04/18 08:55:43;;;;;;;;;;;;;;;14.82;57.60;100233.16;109349;1279;22453;-57
2023/04/18 09:02:22;;;;;;;;;;;;;;;14.99;57.97;100230.39;109250;1283;22426;-47
2023/04/18 09:09:03;;;;;;;;;;;;;;;15.20;57.52;100227.52;109196;1280;23109;-46
2023/04/18 09:12:16;;;;;;;;;;;;;;;15.32;57.02;100230.98;109256;1280;22430;-46
2023/04/18 09:14:45;;;;;;;;;;;;;;;15.38;57.19;100229.97;109141;1280;23320;-56
2023/04/18 09:17:17;;;;;;;;;;;;;;;15.45;57.79;100227.90;109321;1287;23229;-47
2023/04/18 09:19:47;;;;;;;;;;;;;;;15.51;57.91;100228.81;109223;1281;22461;-57
2023/04/18 09:22:16;;;;;;;;;;;;;;;15.54;57.11;100226.30;109368;1280;22536;-46
2023/04/18 09:24:56;;;;;;;;;;;;;;;15.58;56.47;100229.03;109306;1281;22474;-56
2023/04/18 09:27:24;;;;;;;;;;;;;;;15.65;55.24;100227.14;109221;1279;22453;-58
2023/04/18 09:29:53;;;;;;;;;;;;;;;15.71;54.89;100223.50;109253;1280;23287;-56
2023/04/18 09:32:25;;;;;;;;;;;;;;;15.81;55.83;100225.38;109276;1280;23318;-46
2023/04/18 09:35:00;;;;;;;;;;;;;;;15.89;56.41;100214.28;109126;1280;23376;-47
2023/04/18 09:37:50;;;;;;;;;;;;;;;16.01;55.13;100221.06;109186;1280;22525;-56
2023/04/18 09:40:35;;;;;;;;;;;;;;;16.07;54.14;100221.26;109204;1280;22468;-47
2023/04/18 09:43:20;;;;;;;;;;;;;;;16.12;52.99;100224.48;108878;1280;22470;-57
2023/04/18 09:45:49;;;;;;;;;;;;;;;16.16;53.17;100224.37;109305;1284;22908;-57
2023/04/18 09:48:18;;;;;;;;;;;;;;;16.25;53.64;100223.98;109163;1280;22919;-47
2023/04/18 09:50:49;;;;;;;;;;;;;;;16.36;52.09;100220.73;109055;1281;24412;-48
2023/04/18 09:53:20;;;;;;;;;;;;;;;16.43;51.81;100216.84;109006;1276;22522;-58
2023/04/18 09:55:56;;;;;;;;;;;;;;;16.49;51.45;100212.11;109155;1281;22575;-45
2023/04/18 09:58:37;;;;;;;;;;;;;;;16.53;51.68;100218.36;108985;1283;22463;-56
2023/04/18 10:01:28;;;;;;;;;;;;;;;16.56;51.42;100212.47;108907;1280;22590;-58
2023/04/18 10:04:02;;;;;;;;;;;;;;;16.62;51.76;100208.81;109012;1283;22906;-46
2023/04/18 10:06:33;;;;;;;;;;;;;;;16.72;51.49;100205.40;109025;1286;22482;-56
2023/04/18 10:09:06;;;;;;;;;;;;;;;16.80;49.64;100206.77;109160;1281;22459;-56
2023/04/18 10:11:43;;;;;;;;;;;;;;;16.84;49.65;100199.44;108954;1282;23309;-54
2023/04/18 10:14:12;;;;;;;;;;;;;;;16.91;49.27;100192.92;109222;1280;23100;-55
2023/04/18 10:16:46;;;;;;;;;;;;;;;16.99;48.69;100194.09;109277;1280;22523;-46
2023/04/18 10:19:20;;;;;;;;;;;;;;;17.10;49.42;100191.86;109219;1283;22450;-46
2023/04/18 10:21:52;;;;;;;;;;;;;;;17.29;49.14;100188.29;109101;1281;23963;-46
2023/04/18 10:24:39;;;;;;;;;;;;;;;17.51;48.39;100184.81;109129;1280;22441;-58
2023/04/18 10:27:08;;;;;;;;;;;;;;;17.84;47.76;100186.48;109034;1279;23243;-46
2023/04/18 10:29:50;;;;;;;;;;;;;;;18.15;47.05;100181.96;109115;1280;22487;-57
2023/04/18 10:32:22;;;;;;;;;;;;;;;18.49;44.95;100178.70;108941;1277;23091;-44
2023/04/18 10:34:52;;;;;;;;;;;;;;;18.73;44.14;100178.95;108893;1283;22466;-47
2023/04/18 10:37:25;;;;;;;;;;;;;;;18.99;43.79;100179.62;109201;1279;22565;-46
2023/04/18 10:39:56;;;;;;;;;;;;;;;19.26;43.82;100180.22;109143;1286;23308;-56
2023/04/18 10:42:47;;;;;;;;;;;;;;;19.58;42.05;100180.73;109191;1281;23280;-46
2023/04/18 10:45:20;;;;;;;;;;;;;;;19.98;40.37;100177.77;109290;1280;22672;-45
2023/04/18 10:48:11;;;;;;;;;;;;;;;20.32;40.07;100169.63;109215;1280;22588;-46
2023/04/18 10:51:05;;;;;;;;;;;;;;;20.68;39.47;100177.34;109437;1286;23216;-56
2023/04/18 10:53:51;;;;;;;;;;;;;;;21.11;38.36;100180.20;109359;1280;22493;-46
2023/04/18 10:56:22;;;;;;;;;;;;;;;21.58;37.97;100182.16;109180;1286;22452;-56
2023/04/18 10:58:50;;;;;;;;;;;;;;;22.06;37.15;100183.41;109487;1280;22455;-48
2023/04/18 11:01:26;;;;;;;;;;;;;;;22.45;36.19;100181.83;109326;1283;22505;-47
2023/04/18 11:03:59;;;;;;;;;;;;;;;22.91;35.21;100177.14;109474;1286;23229;-47
2023/04/18 11:06:30;;;;;;;;;;;;;;;23.34;34.39;100182.65;109375;1286;22497;-55
2023/04/18 11:09:10;;;;;;;;;;;;;;;23.62;33.84;100179.15;109384;1281;23144;-55
2023/04/18 11:11:39;;;;;;;;;;;;;;;23.92;32.39;100176.63;109450;1286;22467;-46
2023/04/18 11:14:07;;;;;;;;;;;;;;;24.06;32.15;100173.13;109455;1286;22523;-46
2023/04/18 11:16:36;;;;;;;;;;;;;;;24.16;31.70;100168.11;109460;1286;22410;-46
2023/04/18 11:19:17;;;;;;;;;;;;;;;24.18;32.40;100170.66;109412;1286;22549;-48
2023/04/18 11:21:45;;;;;;;;;;;;;;;24.37;31.77;100170.10;109390;1286;124425;-47
2023/04/18 11:24:21;;;;;;;;;;;;;;;24.52;31.35;100165.48;109491;1286;22454;-56
2023/04/18 11:26:49;;;;;;;;;;;;;;;24.54;31.60;100162.54;109487;1286;23244;-46
2023/04/18 11:29:17;;;;;;;;;;;;;;;24.58;30.98;100158.70;109559;1286;23237;-46
2023/04/18 11:31:50;;;;;;;;;;;;;;;24.41;30.06;100160.26;109484;1286;22509;-45
2023/04/18 11:34:18;;;;;;;;;;;;;;;24.06;30.97;100155.84;109379;1287;22555;-46
2023/04/18 11:36:50;;;;;;;;;;;;;;;23.77;31.18;100156.27;109443;1286;22442;-46
2023/04/18 11:39:18;;;;;;;;;;;;;;;23.52;30.96;100158.19;109566;1286;22433;-46
2023/04/18 11:41:49;;;;;;;;;;;;;;;23.28;31.39;100148.67;109594;1286;22515;-46
2023/04/18 11:44:17;;;;;;;;;;;;;;;23.07;31.29;100149.10;109568;1283;22477;-47
2023/04/18 11:46:46;;;;;;;;;;;;;;;22.77;31.52;100146.73;109469;1285;22439;-56
2023/04/18 11:49:24;;;;;;;;;;;;;;;22.50;32.17;100144.40;109578;1283;22444;-56
2023/04/18 11:51:52;;;;;;;;;;;;;;;22.30;32.37;100143.82;109595;1286;22468;-48
2023/04/18 11:54:43;;;;;;;;;;;;;;;22.20;32.33;100132.29;109515;1286;23144;-46
2023/04/18 11:57:21;;;;;;;;;;;;;;;22.01;32.94;100140.66;109436;1286;22881;-46
2023/04/18 11:59:59;;;;;;;;;;;;;;;21.98;33.71;100139.57;109522;1281;22448;-46
2023/04/18 12:02:46;;;;;;;;;;;;;;;22.06;33.33;100136.35;109540;1286;22440;-56
2023/04/18 12:05:25;;;;;;;;;;;;;;;22.09;32.85;100131.06;109558;1280;23380;-47
2023/04/18 12:07:53;;;;;;;;;;;;;;;22.01;32.65;100127.33;109623;1280;22453;-47
2023/04/18 12:10:22;;;;;;;;;;;;;;;21.98;32.52;100124.32;109667;1286;23178;-47
2023/04/18 12:12:51;;;;;;;;;;;;;;;21.88;32.29;100128.38;109613;1287;22497;-46
2023/04/18 12:15:20;;;;;;;;;;;;;;;21.72;32.75;100129.14;109709;1287;22463;-46
2023/04/18 12:17:50;;;;;;;;;;;;;;;21.54;32.51;100127.00;109676;1281;22433;-56
2023/04/18 12:20:18;;;;;;;;;;;;;;;21.41;32.91;100129.54;109693;1287;23159;-56
2023/04/18 12:22:50;;;;;;;;;;;;;;;21.30;33.11;100127.59;109718;1284;22467;-48
2023/04/18 12:25:21;;;;;;;;;;;;;;;21.29;33.30;100123.20;109713;1286;22425;-56
2023/04/18 12:27:54;;;;;;;;;;;;;;;21.27;33.50;100117.08;109693;1287;22449;-47
2023/04/18 12:30:23;;;;;;;;;;;;;;;21.18;33.08;100114.43;109683;1286;22457;-48
2023/04/18 12:32:52;;;;;;;;;;;;;;;21.12;33.93;100102.48;109718;1286;22524;-47
2023/04/18 12:35:20;;;;;;;;;;;;;;;21.01;33.11;100109.04;109692;1287;23319;-46
2023/04/18 12:37:49;;;;;;;;;;;;;;;20.89;33.47;100106.42;109670;1287;22422;-47
2023/04/18 12:40:21;;;;;;;;;;;;;;;20.86;33.54;100106.52;109708;1287;22662;-47
2023/04/18 12:42:49;;;;;;;;;;;;;;;20.92;33.80;100105.20;109719;1286;22517;-56
2023/04/18 12:45:18;;;;;;;;;;;;;;;21.00;33.89;100098.80;109694;1286;22530;-57
2023/04/18 12:47:46;;;;;;;;;;;;;;;21.07;34.10;100096.36;109673;1287;22457;-57
2023/04/18 12:50:15;;;;;;;;;;;;;;;21.15;33.57;100097.07;109634;1287;22455;-57
2023/04/18 12:52:43;;;;;;;;;;;;;;;21.20;33.66;100098.91;109535;1287;22870;-49
2023/04/18 12:55:11;;;;;;;;;;;;;;;21.28;33.39;100099.12;109599;1286;22448;-46
2023/04/18 12:57:40;;;;;;;;;;;;;;;21.40;33.39;100100.86;109651;1286;22419;-47
2023/04/18 13:00:12;;;;;;;;;;;;;;;21.43;33.35;100094.33;109675;1287;22547;-48
2023/04/18 13:02:42;;;;;;;;;;;;;;;21.36;33.54;100096.96;109661;1287;22526;-47
2023/04/18 13:05:11;;;;;;;;;;;;;;;21.32;33.68;100100.02;109694;1287;22436;-46
2023/04/18 13:07:41;;;;;;;;;;;;;;;21.39;33.76;100100.00;109725;1285;22628;-54
2023/04/18 13:10:10;;;;;;;;;;;;;;;21.53;33.67;100099.16;109707;1287;22936;-46
2023/04/18 13:12:39;;;;;;;;;;;;;;;21.94;33.43;100094.32;109701;1287;22425;-55
2023/04/18 13:15:07;;;;;;;;;;;;;;;22.34;32.99;100094.07;109671;1287;22445;-56
2023/04/18 13:17:36;;;;;;;;;;;;;;;22.78;32.13;100096.95;109680;1287;22442;-46
2023/04/18 13:20:05;;;;;;;;;;;;;;;23.14;31.86;100094.25;109663;1287;22452;-46
2023/04/18 13:22:33;;;;;;;;;;;;;;;23.53;31.31;100089.60;109681;1287;22434;-55
